createdAt,value
2019-04-10T00:01:22.115Z,37.47
2019-04-10T00:03:55.156Z,37.00
2019-04-10T00:06:27.958Z,36.73
2019-04-10T00:09:00.942Z,38.73
2019-04-10T00:11:34.617Z,37.70
2019-04-10T00:14:08.251Z,38.13
2019-04-10T00:16:42.286Z,36.87
2019-04-10T00:19:15.401Z,36.77
2019-04-10T00:21:49.354Z,37.23
2019-04-10T00:24:22.552Z,36.47
2019-04-10T00:26:56.340Z,38.33
2019-04-10T00:29:29.974Z,38.10
2019-04-10T00:32:03.753Z,37.33
2019-04-10T00:34:37.729Z,37.40
2019-04-10T00:37:22.607Z,37.57
2019-04-10T00:39:45.388Z,36.40
2019-04-10T00:42:18.983Z,36.73
2019-04-10T00:44:52.187Z,36.93
2019-04-10T00:47:25.111Z,36.97
2019-04-10T00:49:57.942Z,36.63
2019-04-10T00:52:30.941Z,37.80
2019-04-10T00:55:04.431Z,37.57
2019-04-10T00:57:37.285Z,36.47
2019-04-10T01:00:10.296Z,36.80
2019-04-10T01:02:43.272Z,37.00
2019-04-10T01:05:17.287Z,36.17
2019-04-10T01:07:50.302Z,35.77
2019-04-10T01:10:23.135Z,36.87
2019-04-10T01:12:56.585Z,36.80
2019-04-10T01:15:30.796Z,35.67
2019-04-10T01:18:04.617Z,35.70
2019-04-10T01:20:37.733Z,36.03
2019-04-10T01:23:11.728Z,35.67
2019-04-10T01:25:44.861Z,35.40
2019-04-10T01:28:17.800Z,35.23
2019-04-10T01:30:50.758Z,36.87
2019-04-10T01:33:23.657Z,36.77
2019-04-10T01:35:56.394Z,36.80
2019-04-10T01:38:29.330Z,37.50
2019-04-10T01:41:02.240Z,37.10
2019-04-10T01:43:35.187Z,38.27
2019-04-10T01:46:08.363Z,37.77
2019-04-10T01:48:41.930Z,37.53
2019-04-10T01:51:15.197Z,36.53
2019-04-10T01:53:48.282Z,38.50
2019-04-10T01:56:27.624Z,37.47
2019-04-10T01:58:55.802Z,37.53
2019-04-10T02:01:32.740Z,37.00
2019-04-10T02:04:05.739Z,36.77
2019-04-10T02:06:39.625Z,37.23
2019-04-10T02:09:12.895Z,37.67
2019-04-10T02:11:46.079Z,36.70
2019-04-10T02:14:18.977Z,38.70
2019-04-10T02:16:51.867Z,38.13
2019-04-10T02:19:26.126Z,38.37
2019-04-10T02:22:00.205Z,38.10
2019-04-10T02:24:33.436Z,37.90
2019-04-10T02:27:06.445Z,36.90
2019-04-10T02:29:39.872Z,35.13
2019-04-10T02:32:14.437Z,36.97
2019-04-10T02:34:48.934Z,36.03
2019-04-10T02:37:22.916Z,37.70
2019-04-10T02:40:00.225Z,37.60
2019-04-10T02:42:32.242Z,36.27
2019-04-10T02:45:05.983Z,35.30
2019-04-10T02:47:39.151Z,36.93
2019-04-10T02:50:14.037Z,38.20
2019-04-10T02:52:48.830Z,36.13
2019-04-10T02:55:22.996Z,37.37
2019-04-10T02:57:56.423Z,37.37
2019-04-10T03:00:30.331Z,36.23
2019-04-10T03:03:03.660Z,37.07
2019-04-10T03:05:38.276Z,37.87
2019-04-10T03:08:13.011Z,35.23
2019-04-10T03:10:51.754Z,36.27
2019-04-10T03:13:21.865Z,36.17
2019-04-10T03:15:55.876Z,35.80
2019-04-10T03:18:29.059Z,36.53
2019-04-10T03:21:02.746Z,35.17
2019-04-10T03:23:35.720Z,37.37
2019-04-10T03:26:09.652Z,35.60
2019-04-10T03:28:43.057Z,35.03
2019-04-10T03:31:16.204Z,36.33
2019-04-10T03:34:14.265Z,35.53
2019-04-10T03:36:47.645Z,33.67
2019-04-10T03:39:21.525Z,32.63
2019-04-10T03:41:54.790Z,33.73
2019-04-10T03:44:28.000Z,32.63
2019-04-10T03:47:01.014Z,34.30
2019-04-10T03:49:33.986Z,32.50
2019-04-10T03:52:07.237Z,31.73
2019-04-10T03:54:40.533Z,31.13
2019-04-10T03:57:14.266Z,32.53
2019-04-10T03:59:47.615Z,30.17
2019-04-10T04:02:20.584Z,30.37
2019-04-10T04:04:53.793Z,30.83
2019-04-10T04:07:27.269Z,30.53
2019-04-10T04:10:00.388Z,31.70
2019-04-10T04:12:33.257Z,31.47
2019-04-10T04:15:06.337Z,31.10
2019-04-10T04:17:40.063Z,29.47
2019-04-10T04:20:13.293Z,29.17
2019-04-10T04:22:46.207Z,28.03
2019-04-10T04:25:20.449Z,28.83
2019-04-10T04:27:54.507Z,27.63
2019-04-10T04:30:27.797Z,29.40
2019-04-10T04:33:00.804Z,29.63
2019-04-10T04:35:34.621Z,27.53
2019-04-10T04:38:07.713Z,27.93
2019-04-10T04:40:40.773Z,28.37
2019-04-10T04:43:14.549Z,27.90
2019-04-10T04:45:48.384Z,26.93
2019-04-10T04:48:21.925Z,27.27
2019-04-10T04:50:55.060Z,27.70
2019-04-10T04:53:28.163Z,26.93
2019-04-10T04:56:13.675Z,27.17
2019-04-10T04:58:49.680Z,28.40
2019-04-10T05:01:23.076Z,27.50
2019-04-10T05:03:55.993Z,28.40
2019-04-10T05:06:28.873Z,26.57
2019-04-10T05:09:02.814Z,28.17
2019-04-10T05:11:37.155Z,26.07
2019-04-10T05:14:11.028Z,27.03
2019-04-10T05:16:44.070Z,27.13
2019-04-10T05:19:17.398Z,23.27
2019-04-10T05:21:51.814Z,25.30
2019-04-10T05:24:24.718Z,25.57
2019-04-10T05:26:57.601Z,24.23
2019-04-10T05:29:31.284Z,23.27
2019-04-10T05:32:05.120Z,21.70
2019-04-10T05:34:38.401Z,23.67
2019-04-10T05:37:11.514Z,26.20
2019-04-10T05:39:49.912Z,24.10
2019-04-10T05:42:19.171Z,24.00
2019-04-10T05:44:52.326Z,25.33
2019-04-10T05:47:26.219Z,23.47
2019-04-10T05:49:59.812Z,21.60
2019-04-10T05:52:33.193Z,22.27
2019-04-10T05:55:06.590Z,22.70
2019-04-10T05:57:40.655Z,22.53
2019-04-10T06:00:16.691Z,21.30
2019-04-10T06:02:50.289Z,21.23
2019-04-10T06:05:23.147Z,20.70
2019-04-10T06:07:57.260Z,20.83
2019-04-10T06:10:30.221Z,20.43
2019-04-10T06:13:03.182Z,21.20
2019-04-10T06:15:37.146Z,20.63
2019-04-10T06:18:11.083Z,21.03
2019-04-10T06:20:45.255Z,20.87
2019-04-10T06:23:19.146Z,20.93
2019-04-10T06:25:52.211Z,20.07
2019-04-10T06:28:26.203Z,20.53
2019-04-10T06:31:00.665Z,21.23
2019-04-10T06:33:34.053Z,20.40
2019-04-10T06:36:07.055Z,21.03
2019-04-10T06:38:41.003Z,20.03
2019-04-10T06:41:16.200Z,19.47
2019-04-10T06:43:49.634Z,21.37
2019-04-10T06:46:22.702Z,19.87
2019-04-10T06:48:56.330Z,19.87
2019-04-10T06:51:29.340Z,20.67
2019-04-10T06:54:06.770Z,19.80
2019-04-10T06:56:38.470Z,20.77
2019-04-10T06:59:12.160Z,19.97
2019-04-10T07:01:51.336Z,19.60
2019-04-10T07:04:24.026Z,20.17
2019-04-10T07:07:01.758Z,21.07
2019-04-10T07:09:29.932Z,20.70
2019-04-10T07:12:04.996Z,19.83
2019-04-10T07:14:38.741Z,19.20
2019-04-10T07:17:14.362Z,19.83
2019-04-10T07:19:49.345Z,20.00
2019-04-10T07:22:22.922Z,21.23
2019-04-10T07:24:56.467Z,20.70
2019-04-10T07:27:33.605Z,20.33
2019-04-10T07:30:05.644Z,20.33
2019-04-10T07:32:42.144Z,20.80
2019-04-10T07:35:16.641Z,19.80
2019-04-10T07:37:52.694Z,20.50
2019-04-10T07:40:24.950Z,20.63
2019-04-10T07:42:58.742Z,19.27
2019-04-10T07:45:31.888Z,20.40
2019-04-10T07:48:04.925Z,21.17
2019-04-10T07:50:37.763Z,20.63
2019-04-10T07:53:10.786Z,20.30
2019-04-10T07:55:57.495Z,20.52
2019-04-10T07:58:19.488Z,20.80
2019-04-10T08:00:53.304Z,20.57
2019-04-10T08:03:26.333Z,19.73
2019-04-10T08:06:00.367Z,21.25
2019-04-10T08:08:34.019Z,20.30
2019-04-10T08:11:07.215Z,20.30
2019-04-10T08:13:40.721Z,20.20
2019-04-10T08:16:14.782Z,21.00
2019-04-10T08:18:47.843Z,20.30
2019-04-10T08:21:21.836Z,20.05
2019-04-10T08:23:54.966Z,20.93
2019-04-10T08:26:28.167Z,21.02
2019-04-10T08:29:01.651Z,20.65
2019-04-10T08:31:34.791Z,21.10
2019-04-10T08:34:08.814Z,19.37
2019-04-10T08:36:41.818Z,20.15
2019-04-10T08:39:28.240Z,20.85
2019-04-10T08:41:50.099Z,20.77
2019-04-10T08:44:24.219Z,20.77
2019-04-10T08:46:58.153Z,19.52
2019-04-10T08:49:31.348Z,20.55
2019-04-10T08:52:04.193Z,20.82
2019-04-10T08:54:38.366Z,21.25
2019-04-10T08:57:12.221Z,20.48
2019-04-10T08:59:46.651Z,19.37
2019-04-10T09:02:20.147Z,18.95
2019-04-10T09:04:53.214Z,19.45
2019-04-10T09:07:26.380Z,20.43
2019-04-10T09:09:59.317Z,19.90
2019-04-10T09:12:32.384Z,20.17
2019-04-10T09:15:05.982Z,20.62
2019-04-10T09:17:39.669Z,19.82
2019-04-10T09:20:12.849Z,20.62
2019-04-10T09:23:10.719Z,19.60
2019-04-10T09:25:20.623Z,19.90
2019-04-10T09:27:53.982Z,20.50
2019-04-10T09:30:27.380Z,19.73
2019-04-10T09:33:01.693Z,19.67
2019-04-10T09:35:34.943Z,19.65
2019-04-10T09:38:07.731Z,19.95
2019-04-10T09:40:40.798Z,19.42
2019-04-10T09:43:14.339Z,19.17
2019-04-10T09:45:48.080Z,19.27
2019-04-10T09:48:22.143Z,19.48
2019-04-10T09:50:56.108Z,19.35
2019-04-10T09:53:29.168Z,19.52
2019-04-10T09:56:03.131Z,24.95
2019-04-10T09:58:36.373Z,19.15
2019-04-10T10:01:14.707Z,19.87
2019-04-10T10:03:48.710Z,19.45
2019-04-10T10:06:27.372Z,18.52
2019-04-10T10:08:56.486Z,18.55
2019-04-10T10:11:30.616Z,19.20
2019-04-10T10:14:04.087Z,18.82
2019-04-10T10:16:37.547Z,19.07
2019-04-10T10:19:30.140Z,18.60
2019-04-10T10:22:04.677Z,18.40
2019-04-10T10:24:38.514Z,18.95
2019-04-10T10:27:11.506Z,18.75
2019-04-10T10:29:44.383Z,18.98
2019-04-10T10:32:17.196Z,17.30
2019-04-10T10:34:50.444Z,18.67
2019-04-10T10:37:24.169Z,18.82
2019-04-10T10:39:57.317Z,17.35
2019-04-10T10:42:30.294Z,17.75
2019-04-10T10:45:04.797Z,18.00
2019-04-10T10:47:38.717Z,17.85
2019-04-10T10:50:11.575Z,17.77
2019-04-10T10:52:44.345Z,18.05
2019-04-10T10:55:17.853Z,16.35
2019-04-10T10:57:51.263Z,17.40
2019-04-10T11:00:25.271Z,16.90
2019-04-10T11:03:00.200Z,17.90
2019-04-10T11:05:33.393Z,17.02
2019-04-10T11:08:06.893Z,15.65
2019-04-10T11:10:41.074Z,18.52
2019-04-10T11:13:15.002Z,17.50
2019-04-10T11:15:48.550Z,14.83
2019-04-10T11:18:22.225Z,16.42
2019-04-10T11:21:00.705Z,16.02
2019-04-10T11:23:30.567Z,15.63
2019-04-10T11:26:05.165Z,15.18
2019-04-10T11:28:39.166Z,15.68
2019-04-10T11:31:13.533Z,15.25
2019-04-10T11:33:50.275Z,15.80
2019-04-10T11:36:21.705Z,14.60
2019-04-10T11:38:56.003Z,15.43
2019-04-10T11:41:31.171Z,14.93
2019-04-10T11:44:04.699Z,15.25
2019-04-10T11:46:38.689Z,15.80
2019-04-10T11:49:14.344Z,15.88
2019-04-10T11:51:49.931Z,14.65
2019-04-10T11:54:26.454Z,14.05
2019-04-10T11:56:58.728Z,14.03
2019-04-10T11:59:32.945Z,14.43
2019-04-10T12:02:08.160Z,14.53
2019-04-10T12:04:50.680Z,14.68
2019-04-10T12:07:48.060Z,16.45
2019-04-10T12:12:25.821Z,13.62
2019-04-10T12:14:59.753Z,14.13
2019-04-10T12:17:33.822Z,14.15
2019-04-10T12:20:07.445Z,13.95
2019-04-10T12:22:40.725Z,13.95
2019-04-10T12:25:14.884Z,14.40
2019-04-10T12:27:49.372Z,14.43
2019-04-10T12:30:23.473Z,14.10
2019-04-10T12:32:56.844Z,14.05
2019-04-10T12:35:29.896Z,14.38
2019-04-10T12:38:07.257Z,14.10
2019-04-10T12:40:39.325Z,14.05
2019-04-10T12:43:12.714Z,13.78
2019-04-10T12:45:46.461Z,14.47
2019-04-10T12:48:19.516Z,13.95
2019-04-10T12:50:53.058Z,12.50
2019-04-10T12:53:26.244Z,12.33
2019-04-10T12:55:59.792Z,13.50
2019-04-10T12:58:33.001Z,11.83
2019-04-10T13:01:06.779Z,12.82
2019-04-10T13:03:39.690Z,12.43
2019-04-10T13:06:13.637Z,13.28
2019-04-10T13:08:57.769Z,13.38
2019-04-10T13:11:22.563Z,13.58
2019-04-10T13:13:55.497Z,14.00
2019-04-10T13:16:28.345Z,14.93
2019-04-10T13:19:01.292Z,16.30
2019-04-10T13:21:34.654Z,15.98
2019-04-10T13:24:09.029Z,15.68
2019-04-10T13:26:42.049Z,16.95
2019-04-10T13:29:16.143Z,16.07
2019-04-10T13:31:49.157Z,15.70
2019-04-10T13:34:22.027Z,15.10
2019-04-10T13:36:56.119Z,14.07
2019-04-10T13:39:29.050Z,14.90
2019-04-10T13:42:03.072Z,15.28
2019-04-10T13:44:36.022Z,14.95
2019-04-10T13:47:10.216Z,14.65
2019-04-10T13:49:44.184Z,14.95
2019-04-10T13:52:18.283Z,15.08
2019-04-10T13:54:52.460Z,15.75
2019-04-10T13:57:26.457Z,15.18
2019-04-10T13:59:59.718Z,14.70
2019-04-10T14:02:35.507Z,15.58
2019-04-10T14:05:11.634Z,14.55
2019-04-10T14:07:44.665Z,14.15
2019-04-10T14:10:18.776Z,15.70
2019-04-10T14:12:51.807Z,14.70
2019-04-10T14:15:25.876Z,14.38
2019-04-10T14:17:59.718Z,14.15
2019-04-10T14:20:32.856Z,15.38
2019-04-10T14:23:22.593Z,14.73
2019-04-10T14:26:18.662Z,15.23
2019-04-10T14:28:52.024Z,14.60
2019-04-10T14:31:28.763Z,16.02
2019-04-10T14:34:02.773Z,15.18
2019-04-10T14:36:36.522Z,15.13
2019-04-10T14:39:18.301Z,15.15
2019-04-10T14:41:49.867Z,15.08
2019-04-10T14:44:23.339Z,14.60
2019-04-10T14:46:56.426Z,14.83
2019-04-10T14:49:29.361Z,14.95
2019-04-10T14:52:03.164Z,16.07
2019-04-10T14:54:36.312Z,15.53
2019-04-10T14:57:09.258Z,14.63
2019-04-10T14:59:42.253Z,14.65
2019-04-10T15:02:15.344Z,14.63
2019-04-10T15:04:49.403Z,14.20
2019-04-10T15:07:22.566Z,13.58
2019-04-10T15:09:55.518Z,13.72
2019-04-10T15:12:28.584Z,14.18
2019-04-10T15:15:01.878Z,14.50
2019-04-10T15:17:36.083Z,13.75
2019-04-10T15:20:09.179Z,13.85
2019-04-10T15:22:42.263Z,13.72
2019-04-10T15:25:15.767Z,13.60
2019-04-10T15:27:49.645Z,12.85
2019-04-10T15:30:22.693Z,14.43
2019-04-10T15:32:56.087Z,14.70
2019-04-10T15:35:29.273Z,14.63
2019-04-10T15:38:02.457Z,13.70
2019-04-10T15:40:36.442Z,14.80
2019-04-10T15:43:10.649Z,14.50
2019-04-10T15:45:44.126Z,14.63
2019-04-10T15:48:17.137Z,14.70
2019-04-10T15:50:51.700Z,15.18
2019-04-10T15:53:24.768Z,15.20
2019-04-10T15:55:57.876Z,14.75
2019-04-10T15:58:31.147Z,15.08
2019-04-10T16:01:06.045Z,15.05
2019-04-10T16:03:39.001Z,15.48
2019-04-10T16:06:11.957Z,15.10
2019-04-10T16:08:44.980Z,15.15
2019-04-10T16:11:38.203Z,15.60
2019-04-10T16:14:20.740Z,15.20
2019-04-10T16:17:22.272Z,15.23
2019-04-10T16:20:13.978Z,15.75
2019-04-10T16:22:53.791Z,15.38
2019-04-10T16:25:28.218Z,15.20
2019-04-10T16:28:02.610Z,15.93
2019-04-10T16:30:35.538Z,15.43
2019-04-10T16:33:09.131Z,15.68
2019-04-10T16:35:46.219Z,16.32
2019-04-10T16:38:20.479Z,16.07
2019-04-10T16:40:56.352Z,15.75
2019-04-10T16:43:30.615Z,15.05
2019-04-10T16:46:04.819Z,15.70
2019-04-10T16:48:38.016Z,15.72
2019-04-10T16:51:10.799Z,15.48
2019-04-10T16:53:44.145Z,15.15
2019-04-10T16:56:17.817Z,15.40
2019-04-10T16:58:52.079Z,15.25
2019-04-10T17:01:25.128Z,15.55
2019-04-10T17:03:58.611Z,15.68
2019-04-10T17:06:32.497Z,14.58
2019-04-10T17:09:06.289Z,14.87
2019-04-10T17:11:40.988Z,14.75
2019-04-10T17:14:15.106Z,14.60
2019-04-10T17:16:48.248Z,14.95
2019-04-10T17:19:21.619Z,14.03
2019-04-10T17:21:54.916Z,15.20
2019-04-10T17:24:27.877Z,14.18
2019-04-10T17:27:01.519Z,14.70
2019-04-10T17:29:34.738Z,13.98
2019-04-10T17:32:07.745Z,13.98
2019-04-10T17:34:41.067Z,14.35
2019-04-10T17:37:14.241Z,14.75
2019-04-10T17:39:47.370Z,14.03
2019-04-10T17:42:20.392Z,14.55
2019-04-10T17:44:54.692Z,14.35
2019-04-10T17:47:27.750Z,15.35
2019-04-10T17:50:00.723Z,14.90
2019-04-10T17:52:35.882Z,15.35
2019-04-10T17:55:09.407Z,15.88
2019-04-10T17:57:44.624Z,14.50
2019-04-10T18:00:33.460Z,14.85
2019-04-10T18:03:07.596Z,14.10
2019-04-10T18:05:40.818Z,15.77
2019-04-10T18:08:13.872Z,15.13
2019-04-10T18:10:50.820Z,15.07
2019-04-10T18:13:22.441Z,15.30
2019-04-10T18:15:56.674Z,14.97
2019-04-10T18:18:30.052Z,15.23
2019-04-10T18:21:04.462Z,15.80
2019-04-10T18:23:37.890Z,15.57
2019-04-10T18:26:11.136Z,14.93
2019-04-10T18:28:44.219Z,14.30
2019-04-10T18:31:17.234Z,15.20
2019-04-10T18:33:51.013Z,15.20
2019-04-10T18:36:24.462Z,14.67
2019-04-10T18:38:57.757Z,14.27
2019-04-10T18:41:31.857Z,14.60
2019-04-10T18:44:05.104Z,15.17
2019-04-10T18:46:38.072Z,16.33
2019-04-10T18:49:11.466Z,14.87
2019-04-10T18:51:45.794Z,14.63
2019-04-10T18:54:18.968Z,14.37
2019-04-10T18:56:51.936Z,14.57
2019-04-10T18:59:34.442Z,14.30
2019-04-10T19:02:30.421Z,14.67
2019-04-10T19:05:23.519Z,14.07
2019-04-10T19:07:56.791Z,13.60
2019-04-10T19:10:30.644Z,13.83
2019-04-10T19:13:03.934Z,13.23
2019-04-10T19:15:37.188Z,14.40
2019-04-10T19:18:11.323Z,14.03
2019-04-10T19:20:44.199Z,14.27
2019-04-10T19:23:17.401Z,14.90
2019-04-10T19:25:51.219Z,13.93
2019-04-10T19:28:30.266Z,14.53
2019-04-10T19:31:12.871Z,14.00
2019-04-10T19:33:39.425Z,13.37
2019-04-10T19:36:12.726Z,13.13
2019-04-10T19:38:45.826Z,13.57
2019-04-10T19:41:25.064Z,13.83
2019-04-10T19:43:54.864Z,13.77
2019-04-10T19:46:28.958Z,12.70
2019-04-10T19:49:02.496Z,13.73
2019-04-10T19:51:36.408Z,13.50
2019-04-10T19:54:10.870Z,13.00
2019-04-10T19:56:44.584Z,12.10
2019-04-10T19:59:18.696Z,13.57
2019-04-10T20:01:52.769Z,13.47
2019-04-10T20:04:26.946Z,11.70
2019-04-10T20:07:00.584Z,13.03
2019-04-10T20:09:34.606Z,13.33
2019-04-10T20:12:08.488Z,13.27
2019-04-10T20:14:41.677Z,13.07
2019-04-10T20:17:15.420Z,13.23
2019-04-10T20:19:48.937Z,13.43
2019-04-10T20:22:22.955Z,12.90
2019-04-10T20:24:56.867Z,12.77
2019-04-10T20:27:29.908Z,12.20
2019-04-10T20:30:03.725Z,12.40
2019-04-10T20:32:38.475Z,12.77
2019-04-10T20:35:11.972Z,13.10
2019-04-10T20:37:45.023Z,12.73
2019-04-10T20:40:19.559Z,12.43
2019-04-10T20:42:54.161Z,12.90
2019-04-10T20:45:27.408Z,12.20
2019-04-10T20:48:00.373Z,12.37
2019-04-10T20:50:34.216Z,12.53
2019-04-10T20:53:07.487Z,12.93
2019-04-10T20:55:59.937Z,12.40
2019-04-10T20:58:33.844Z,12.07
2019-04-10T21:01:08.243Z,12.97
2019-04-10T21:03:41.221Z,12.50
2019-04-10T21:06:15.507Z,13.20
2019-04-10T21:08:48.560Z,13.07
2019-04-10T21:11:22.528Z,13.33
2019-04-10T21:13:56.598Z,13.10
2019-04-10T21:16:29.811Z,13.17
2019-04-10T21:19:03.002Z,12.60
2019-04-10T21:21:36.930Z,12.73
2019-04-10T21:24:09.942Z,13.27
2019-04-10T21:26:42.974Z,12.07
2019-04-10T21:29:36.346Z,12.77
2019-04-10T21:32:28.263Z,12.40
2019-04-10T21:35:02.079Z,11.83
2019-04-10T21:37:35.209Z,13.00
2019-04-10T21:40:08.363Z,12.63
2019-04-10T21:42:41.376Z,12.30
2019-04-10T21:45:14.257Z,12.23
2019-04-10T21:47:48.064Z,12.27
2019-04-10T21:50:21.596Z,12.20
2019-04-10T21:52:55.408Z,12.10
2019-04-10T21:55:29.043Z,12.30
2019-04-10T21:58:02.117Z,12.37
2019-04-10T22:00:53.414Z,13.10
2019-04-10T22:03:27.667Z,12.53
2019-04-10T22:06:30.199Z,12.43
2019-04-10T22:09:34.913Z,12.67
2019-04-10T22:12:23.910Z,13.00
2019-04-10T22:14:50.295Z,11.80
2019-04-10T22:17:23.364Z,13.33
2019-04-10T22:19:56.239Z,12.27
2019-04-10T22:22:29.012Z,10.87
2019-04-10T22:25:01.956Z,12.70
2019-04-10T22:27:35.929Z,12.07
2019-04-10T22:30:10.370Z,12.70
2019-04-10T22:32:43.419Z,12.73
2019-04-10T22:35:17.214Z,11.70
2019-04-10T22:37:50.391Z,12.20
2019-04-10T22:40:23.606Z,13.47
2019-04-10T22:42:57.495Z,12.67
2019-04-10T22:45:31.278Z,13.33
2019-04-10T22:48:06.164Z,13.17
2019-04-10T22:50:40.038Z,13.70
2019-04-10T22:53:13.038Z,13.40
2019-04-10T22:55:46.527Z,13.57
2019-04-10T22:58:19.536Z,12.93
2019-04-10T23:00:52.445Z,13.27
2019-04-10T23:03:25.215Z,13.93
2019-04-10T23:05:58.620Z,14.03
2019-04-10T23:08:31.695Z,14.80
2019-04-10T23:11:05.714Z,15.13
2019-04-10T23:13:39.053Z,14.17
2019-04-10T23:16:15.306Z,15.07
2019-04-10T23:18:47.698Z,16.67
2019-04-10T23:21:20.776Z,16.70
2019-04-10T23:23:54.927Z,15.20
2019-04-10T23:26:29.029Z,15.43
2019-04-10T23:29:02.166Z,15.83
2019-04-10T23:31:35.050Z,15.20
2019-04-10T23:34:08.401Z,15.87
2019-04-10T23:36:42.333Z,15.93
2019-04-10T23:39:16.330Z,15.47
2019-04-10T23:41:50.985Z,14.60
2019-04-10T23:44:24.857Z,14.07
2019-04-10T23:46:57.894Z,13.13
2019-04-10T23:49:30.786Z,15.33
2019-04-10T23:52:03.659Z,15.17
2019-04-10T23:54:37.435Z,14.17
2019-04-10T23:57:11.468Z,14.63
2019-04-10T23:59:44.666Z,13.63
